sensor_id;sensor_type;location;lat;lon;timestamp;P1;durP1;ratioP1;P2;durP2;ratioP2
11996;SDS011;6058;48.704;9.474;2024-03-22T00:01:58;5.40;;;4.77;;
11996;SDS011;6058;48.704;9.474;2024-03-22T00:04:25;6.73;;;4.97;;
11996;SDS011;6058;48.704;9.474;2024-03-22T00:06:52;6.53;;;4.70;;
11996;SDS011;6058;48.704;9.474;2024-03-22T00:09:19;7.03;;;4.63;;
11996;SDS011;6058;48.704;9.474;2024-03-22T00:11:45;7.20;;;5.27;;
11996;SDS011;6058;48.704;9.474;2024-03-22T00:14:12;8.30;;;5.00;;
11996;SDS011;6058;48.704;9.474;2024-03-22T00:16:38;7.83;;;5.10;;
11996;SDS011;6058;48.704;9.474;2024-03-22T00:19:06;6.97;;;4.50;;
11996;SDS011;6058;48.704;9.474;2024-03-22T00:21:33;7.97;;;4.73;;
11996;SDS011;6058;48.704;9.474;2024-03-22T00:24:00;7.13;;;4.57;;
11996;SDS011;6058;48.704;9.474;2024-03-22T00:26:26;7.83;;;5.77;;
11996;SDS011;6058;48.704;9.474;2024-03-22T00:28:53;6.87;;;5.07;;
11996;SDS011;6058;48.704;9.474;2024-03-22T00:31:19;6.27;;;5.00;;
11996;SDS011;6058;48.704;9.474;2024-03-22T00:33:47;5.93;;;4.77;;
11996;SDS011;6058;48.704;9.474;2024-03-22T00:36:14;7.27;;;5.20;;
11996;SDS011;6058;48.704;9.474;2024-03-22T00:38:41;5.33;;;4.60;;
11996;SDS011;6058;48.704;9.474;2024-03-22T00:41:07;6.67;;;4.53;;
11996;SDS011;6058;48.704;9.474;2024-03-22T00:43:34;5.90;;;4.70;;
11996;SDS011;6058;48.704;9.474;2024-03-22T00:46:00;6.57;;;5.13;;
11996;SDS011;6058;48.704;9.474;2024-03-22T00:48:28;5.87;;;5.17;;
11996;SDS011;6058;48.704;9.474;2024-03-22T00:50:54;5.63;;;4.93;;
11996;SDS011;6058;48.704;9.474;2024-03-22T00:53:22;7.37;;;4.73;;
11996;SDS011;6058;48.704;9.474;2024-03-22T00:55:48;6.80;;;4.93;;
11996;SDS011;6058;48.704;9.474;2024-03-22T00:58:17;8.90;;;5.33;;
11996;SDS011;6058;48.704;9.474;2024-03-22T01:00:44;7.40;;;4.87;;
11996;SDS011;6058;48.704;9.474;2024-03-22T01:03:11;6.30;;;5.30;;
11996;SDS011;6058;48.704;9.474;2024-03-22T01:05:37;7.83;;;6.00;;
11996;SDS011;6058;48.704;9.474;2024-03-22T01:08:05;5.80;;;4.87;;
11996;SDS011;6058;48.704;9.474;2024-03-22T01:10:33;6.67;;;5.37;;
11996;SDS011;6058;48.704;9.474;2024-03-22T01:13:01;5.90;;;4.73;;
11996;SDS011;6058;48.704;9.474;2024-03-22T01:15:27;6.57;;;5.20;;
11996;SDS011;6058;48.704;9.474;2024-03-22T01:17:54;6.07;;;5.00;;
11996;SDS011;6058;48.704;9.474;2024-03-22T01:20:21;7.10;;;5.57;;
11996;SDS011;6058;48.704;9.474;2024-03-22T01:22:48;5.93;;;4.83;;
11996;SDS011;6058;48.704;9.474;2024-03-22T01:25:14;7.43;;;5.60;;
11996;SDS011;6058;48.704;9.474;2024-03-22T01:27:43;7.00;;;4.97;;
11996;SDS011;6058;48.704;9.474;2024-03-22T01:30:09;7.17;;;5.33;;
11996;SDS011;6058;48.704;9.474;2024-03-22T01:32:36;7.43;;;4.97;;
11996;SDS011;6058;48.704;9.474;2024-03-22T01:35:03;5.80;;;4.93;;
11996;SDS011;6058;48.704;9.474;2024-03-22T01:37:30;7.63;;;5.13;;
11996;SDS011;6058;48.704;9.474;2024-03-22T01:39:56;5.87;;;4.57;;
11996;SDS011;6058;48.704;9.474;2024-03-22T01:42:23;5.37;;;4.47;;
11996;SDS011;6058;48.704;9.474;2024-03-22T01:44:51;6.40;;;5.20;;
11996;SDS011;6058;48.704;9.474;2024-03-22T01:47:18;4.93;;;4.30;;
11996;SDS011;6058;48.704;9.474;2024-03-22T01:49:44;5.87;;;5.17;;
11996;SDS011;6058;48.704;9.474;2024-03-22T01:52:11;4.57;;;4.07;;
11996;SDS011;6058;48.704;9.474;2024-03-22T01:54:38;6.77;;;5.10;;
11996;SDS011;6058;48.704;9.474;2024-03-22T01:57:05;6.77;;;4.30;;
11996;SDS011;6058;48.704;9.474;2024-03-22T01:59:31;6.20;;;4.83;;
11996;SDS011;6058;48.704;9.474;2024-03-22T02:02:00;6.17;;;4.90;;
11996;SDS011;6058;48.704;9.474;2024-03-22T02:04:27;7.33;;;5.23;;
11996;SDS011;6058;48.704;9.474;2024-03-22T02:06:54;6.33;;;5.10;;
11996;SDS011;6058;48.704;9.474;2024-03-22T02:09:20;5.60;;;4.70;;
11996;SDS011;6058;48.704;9.474;2024-03-22T02:11:49;6.73;;;5.10;;
11996;SDS011;6058;48.704;9.474;2024-03-22T02:14:16;6.90;;;4.80;;
11996;SDS011;6058;48.704;9.474;2024-03-22T02:16:43;10.77;;;5.33;;
11996;SDS011;6058;48.704;9.474;2024-03-22T02:19:11;7.87;;;5.70;;
11996;SDS011;6058;48.704;9.474;2024-03-22T02:21:38;11.50;;;5.97;;
11996;SDS011;6058;48.704;9.474;2024-03-22T02:24:06;7.43;;;5.37;;
11996;SDS011;6058;48.704;9.474;2024-03-22T02:26:33;5.63;;;4.87;;
11996;SDS011;6058;48.704;9.474;2024-03-22T02:29:00;6.60;;;5.30;;
11996;SDS011;6058;48.704;9.474;2024-03-22T02:31:27;6.30;;;4.60;;
11996;SDS011;6058;48.704;9.474;2024-03-22T02:33:53;6.63;;;4.93;;
11996;SDS011;6058;48.704;9.474;2024-03-22T02:36:20;8.80;;;5.23;;
11996;SDS011;6058;48.704;9.474;2024-03-22T02:38:46;7.33;;;5.33;;
11996;SDS011;6058;48.704;9.474;2024-03-22T02:41:14;9.27;;;5.73;;
11996;SDS011;6058;48.704;9.474;2024-03-22T02:43:40;6.87;;;5.30;;
11996;SDS011;6058;48.704;9.474;2024-03-22T02:46:08;6.93;;;5.40;;
11996;SDS011;6058;48.704;9.474;2024-03-22T02:48:34;7.57;;;4.90;;
11996;SDS011;6058;48.704;9.474;2024-03-22T02:51:01;8.10;;;6.00;;
11996;SDS011;6058;48.704;9.474;2024-03-22T02:53:27;5.83;;;4.87;;
11996;SDS011;6058;48.704;9.474;2024-03-22T02:55:54;6.40;;;5.23;;
11996;SDS011;6058;48.704;9.474;2024-03-22T02:58:22;5.90;;;5.20;;
11996;SDS011;6058;48.704;9.474;2024-03-22T03:00:49;5.63;;;4.60;;
11996;SDS011;6058;48.704;9.474;2024-03-22T03:03:15;7.10;;;5.20;;
11996;SDS011;6058;48.704;9.474;2024-03-22T03:05:42;6.83;;;5.60;;
11996;SDS011;6058;48.704;9.474;2024-03-22T03:08:09;8.80;;;5.77;;
11996;SDS011;6058;48.704;9.474;2024-03-22T03:10:36;8.40;;;5.17;;
11996;SDS011;6058;48.704;9.474;2024-03-22T03:13:02;8.93;;;5.03;;
11996;SDS011;6058;48.704;9.474;2024-03-22T03:15:31;6.00;;;5.30;;
11996;SDS011;6058;48.704;9.474;2024-03-22T03:17:57;8.10;;;5.70;;
11996;SDS011;6058;48.704;9.474;2024-03-22T03:20:24;7.03;;;5.10;;
11996;SDS011;6058;48.704;9.474;2024-03-22T03:22:50;6.07;;;4.73;;
11996;SDS011;6058;48.704;9.474;2024-03-22T03:25:18;6.90;;;5.33;;
11996;SDS011;6058;48.704;9.474;2024-03-22T03:27:44;9.17;;;5.73;;
11996;SDS011;6058;48.704;9.474;2024-03-22T03:30:11;5.77;;;5.10;;
11996;SDS011;6058;48.704;9.474;2024-03-22T03:32:39;6.60;;;4.60;;
11996;SDS011;6058;48.704;9.474;2024-03-22T03:35:06;7.67;;;5.43;;
11996;SDS011;6058;48.704;9.474;2024-03-22T03:37:33;8.20;;;5.63;;
11996;SDS011;6058;48.704;9.474;2024-03-22T03:39:59;7.10;;;5.47;;
11996;SDS011;6058;48.704;9.474;2024-03-22T03:42:26;9.47;;;5.13;;
11996;SDS011;6058;48.704;9.474;2024-03-22T03:44:52;6.87;;;5.90;;
11996;SDS011;6058;48.704;9.474;2024-03-22T03:47:19;6.77;;;5.17;;
11996;SDS011;6058;48.704;9.474;2024-03-22T03:49:47;7.20;;;5.40;;
11996;SDS011;6058;48.704;9.474;2024-03-22T03:52:14;7.27;;;5.27;;
11996;SDS011;6058;48.704;9.474;2024-03-22T03:54:40;7.43;;;5.73;;
11996;SDS011;6058;48.704;9.474;2024-03-22T03:57:07;6.77;;;4.97;;
11996;SDS011;6058;48.704;9.474;2024-03-22T03:59:33;6.80;;;5.17;;
11996;SDS011;6058;48.704;9.474;2024-03-22T04:02:00;8.27;;;6.43;;
11996;SDS011;6058;48.704;9.474;2024-03-22T04:04:26;6.13;;;4.83;;
11996;SDS011;6058;48.704;9.474;2024-03-22T04:06:55;7.00;;;5.17;;
11996;SDS011;6058;48.704;9.474;2024-03-22T04:09:21;6.17;;;4.73;;
11996;SDS011;6058;48.704;9.474;2024-03-22T04:11:48;6.53;;;4.87;;
11996;SDS011;6058;48.704;9.474;2024-03-22T04:14:14;7.00;;;5.27;;
11996;SDS011;6058;48.704;9.474;2024-03-22T04:16:41;6.73;;;5.33;;
11996;SDS011;6058;48.704;9.474;2024-03-22T04:19:07;6.23;;;4.90;;
11996;SDS011;6058;48.704;9.474;2024-03-22T04:21:34;6.83;;;4.87;;
11996;SDS011;6058;48.704;9.474;2024-03-22T04:24:02;6.53;;;4.87;;
11996;SDS011;6058;48.704;9.474;2024-03-22T04:26:30;7.27;;;5.60;;
11996;SDS011;6058;48.704;9.474;2024-03-22T04:28:56;7.67;;;4.93;;
11996;SDS011;6058;48.704;9.474;2024-03-22T04:31:23;6.23;;;5.17;;
11996;SDS011;6058;48.704;9.474;2024-03-22T04:33:49;7.13;;;4.90;;
11996;SDS011;6058;48.704;9.474;2024-03-22T04:36:16;5.50;;;4.90;;
11996;SDS011;6058;48.704;9.474;2024-03-22T04:38:42;5.27;;;4.77;;
11996;SDS011;6058;48.704;9.474;2024-03-22T04:41:11;6.73;;;5.03;;
11996;SDS011;6058;48.704;9.474;2024-03-22T04:43:38;9.90;;;4.80;;
11996;SDS011;6058;48.704;9.474;2024-03-22T04:46:05;8.03;;;5.80;;
11996;SDS011;6058;48.704;9.474;2024-03-22T04:48:32;7.13;;;5.50;;
11996;SDS011;6058;48.704;9.474;2024-03-22T04:50:58;5.60;;;4.47;;
11996;SDS011;6058;48.704;9.474;2024-03-22T04:53:25;7.90;;;5.40;;
11996;SDS011;6058;48.704;9.474;2024-03-22T04:55:52;7.17;;;5.20;;
11996;SDS011;6058;48.704;9.474;2024-03-22T04:58:21;5.60;;;4.23;;
11996;SDS011;6058;48.704;9.474;2024-03-22T05:00:47;5.87;;;4.90;;
11996;SDS011;6058;48.704;9.474;2024-03-22T05:03:15;6.93;;;4.83;;
11996;SDS011;6058;48.704;9.474;2024-03-22T05:05:41;5.27;;;4.57;;
11996;SDS011;6058;48.704;9.474;2024-03-22T05:08:09;7.73;;;4.93;;
11996;SDS011;6058;48.704;9.474;2024-03-22T05:10:35;7.40;;;5.00;;
11996;SDS011;6058;48.704;9.474;2024-03-22T05:13:02;4.97;;;4.47;;
11996;SDS011;6058;48.704;9.474;2024-03-22T05:15:29;6.07;;;5.20;;
11996;SDS011;6058;48.704;9.474;2024-03-22T05:17:57;8.07;;;5.47;;
11996;SDS011;6058;48.704;9.474;2024-03-22T05:20:23;4.73;;;4.17;;
11996;SDS011;6058;48.704;9.474;2024-03-22T05:22:50;5.93;;;5.23;;
11996;SDS011;6058;48.704;9.474;2024-03-22T05:25:17;5.67;;;4.53;;
11996;SDS011;6058;48.704;9.474;2024-03-22T05:27:44;5.70;;;4.80;;
11996;SDS011;6058;48.704;9.474;2024-03-22T05:30:11;6.43;;;4.77;;
11996;SDS011;6058;48.704;9.474;2024-03-22T05:32:40;7.60;;;4.50;;
11996;SDS011;6058;48.704;9.474;2024-03-22T05:35:06;7.63;;;5.20;;
11996;SDS011;6058;48.704;9.474;2024-03-22T05:37:33;6.70;;;5.07;;
11996;SDS011;6058;48.704;9.474;2024-03-22T05:40:00;5.87;;;4.70;;
11996;SDS011;6058;48.704;9.474;2024-03-22T05:42:28;5.40;;;4.90;;
11996;SDS011;6058;48.704;9.474;2024-03-22T05:44:55;10.37;;;5.57;;
11996;SDS011;6058;48.704;9.474;2024-03-22T05:47:22;7.10;;;5.27;;
11996;SDS011;6058;48.704;9.474;2024-03-22T05:49:49;6.87;;;4.97;;
11996;SDS011;6058;48.704;9.474;2024-03-22T05:52:17;7.03;;;4.90;;
11996;SDS011;6058;48.704;9.474;2024-03-22T05:54:43;7.67;;;5.23;;
11996;SDS011;6058;48.704;9.474;2024-03-22T05:57:11;11.10;;;5.50;;
11996;SDS011;6058;48.704;9.474;2024-03-22T05:59:37;7.07;;;5.33;;
11996;SDS011;6058;48.704;9.474;2024-03-22T06:02:04;7.30;;;5.23;;
11996;SDS011;6058;48.704;9.474;2024-03-22T06:04:31;7.50;;;5.70;;
11996;SDS011;6058;48.704;9.474;2024-03-22T06:06:59;6.27;;;4.73;;
11996;SDS011;6058;48.704;9.474;2024-03-22T06:09:28;7.47;;;5.53;;
11996;SDS011;6058;48.704;9.474;2024-03-22T06:12:02;7.27;;;5.00;;
11996;SDS011;6058;48.704;9.474;2024-03-22T06:14:28;10.97;;;6.43;;
11996;SDS011;6058;48.704;9.474;2024-03-22T06:16:55;8.47;;;6.13;;
11996;SDS011;6058;48.704;9.474;2024-03-22T06:19:22;8.40;;;5.63;;
11996;SDS011;6058;48.704;9.474;2024-03-22T06:21:49;6.47;;;5.43;;
11996;SDS011;6058;48.704;9.474;2024-03-22T06:24:17;9.60;;;6.07;;
11996;SDS011;6058;48.704;9.474;2024-03-22T06:26:44;8.47;;;5.20;;
11996;SDS011;6058;48.704;9.474;2024-03-22T06:29:10;7.57;;;5.93;;
11996;SDS011;6058;48.704;9.474;2024-03-22T06:31:39;7.97;;;6.03;;
11996;SDS011;6058;48.704;9.474;2024-03-22T06:34:05;10.70;;;6.70;;
11996;SDS011;6058;48.704;9.474;2024-03-22T06:36:32;8.60;;;6.30;;
11996;SDS011;6058;48.704;9.474;2024-03-22T06:38:58;8.20;;;6.33;;
11996;SDS011;6058;48.704;9.474;2024-03-22T06:41:27;10.57;;;6.30;;
11996;SDS011;6058;48.704;9.474;2024-03-22T06:43:53;9.33;;;6.30;;
11996;SDS011;6058;48.704;9.474;2024-03-22T06:46:20;9.30;;;6.97;;
11996;SDS011;6058;48.704;9.474;2024-03-22T06:48:48;8.07;;;6.50;;
11996;SDS011;6058;48.704;9.474;2024-03-22T06:51:15;7.67;;;5.73;;
11996;SDS011;6058;48.704;9.474;2024-03-22T06:53:41;8.47;;;6.27;;
11996;SDS011;6058;48.704;9.474;2024-03-22T06:56:08;6.70;;;6.00;;
11996;SDS011;6058;48.704;9.474;2024-03-22T06:58:38;9.30;;;6.70;;
11996;SDS011;6058;48.704;9.474;2024-03-22T07:01:05;9.97;;;5.90;;
11996;SDS011;6058;48.704;9.474;2024-03-22T07:03:31;9.47;;;7.40;;
11996;SDS011;6058;48.704;9.474;2024-03-22T07:05:58;11.53;;;7.00;;
11996;SDS011;6058;48.704;9.474;2024-03-22T07:08:25;9.33;;;6.87;;
11996;SDS011;6058;48.704;9.474;2024-03-22T07:10:53;6.73;;;5.60;;
11996;SDS011;6058;48.704;9.474;2024-03-22T07:13:19;9.23;;;6.57;;
11996;SDS011;6058;48.704;9.474;2024-03-22T07:15:48;7.83;;;6.57;;
11996;SDS011;6058;48.704;9.474;2024-03-22T07:18:14;9.23;;;6.47;;
11996;SDS011;6058;48.704;9.474;2024-03-22T07:20:41;11.30;;;6.93;;
11996;SDS011;6058;48.704;9.474;2024-03-22T07:23:07;10.47;;;7.57;;
11996;SDS011;6058;48.704;9.474;2024-03-22T07:25:34;11.77;;;7.47;;
11996;SDS011;6058;48.704;9.474;2024-03-22T07:28:00;11.00;;;6.57;;
11996;SDS011;6058;48.704;9.474;2024-03-22T07:33:04;9.93;;;7.60;;
11996;SDS011;6058;48.704;9.474;2024-03-22T07:35:34;8.80;;;6.83;;
11996;SDS011;6058;48.704;9.474;2024-03-22T07:38:00;11.60;;;7.47;;
11996;SDS011;6058;48.704;9.474;2024-03-22T07:40:27;11.67;;;7.57;;
11996;SDS011;6058;48.704;9.474;2024-03-22T07:42:57;10.43;;;8.47;;
11996;SDS011;6058;48.704;9.474;2024-03-22T07:45:30;10.50;;;7.53;;
11996;SDS011;6058;48.704;9.474;2024-03-22T07:47:57;10.80;;;8.37;;
11996;SDS011;6058;48.704;9.474;2024-03-22T07:50:25;12.40;;;8.53;;
11996;SDS011;6058;48.704;9.474;2024-03-22T07:52:52;11.70;;;8.57;;
11996;SDS011;6058;48.704;9.474;2024-03-22T07:55:19;10.67;;;7.37;;
11996;SDS011;6058;48.704;9.474;2024-03-22T07:57:46;10.03;;;7.50;;
11996;SDS011;6058;48.704;9.474;2024-03-22T08:00:12;11.07;;;8.30;;
11996;SDS011;6058;48.704;9.474;2024-03-22T08:02:40;12.30;;;8.03;;
11996;SDS011;6058;48.704;9.474;2024-03-22T08:05:06;14.07;;;8.67;;
11996;SDS011;6058;48.704;9.474;2024-03-22T08:07:34;12.93;;;8.43;;
11996;SDS011;6058;48.704;9.474;2024-03-22T08:10:00;11.77;;;8.03;;
11996;SDS011;6058;48.704;9.474;2024-03-22T08:12:29;11.33;;;7.90;;
11996;SDS011;6058;48.704;9.474;2024-03-22T08:14:55;11.07;;;8.50;;
11996;SDS011;6058;48.704;9.474;2024-03-22T08:17:22;11.77;;;8.60;;
11996;SDS011;6058;48.704;9.474;2024-03-22T08:19:48;15.07;;;8.80;;
11996;SDS011;6058;48.704;9.474;2024-03-22T08:22:15;11.77;;;7.93;;
11996;SDS011;6058;48.704;9.474;2024-03-22T08:24:43;10.53;;;8.07;;
11996;SDS011;6058;48.704;9.474;2024-03-22T08:27:10;10.53;;;7.90;;
11996;SDS011;6058;48.704;9.474;2024-03-22T08:29:36;10.50;;;8.10;;
11996;SDS011;6058;48.704;9.474;2024-03-22T08:32:04;9.73;;;7.77;;
11996;SDS011;6058;48.704;9.474;2024-03-22T08:34:30;10.83;;;8.50;;
11996;SDS011;6058;48.704;9.474;2024-03-22T08:36:57;12.47;;;8.33;;
11996;SDS011;6058;48.704;9.474;2024-03-22T08:39:24;10.40;;;7.50;;
11996;SDS011;6058;48.704;9.474;2024-03-22T08:41:52;10.03;;;7.03;;
11996;SDS011;6058;48.704;9.474;2024-03-22T08:44:18;11.83;;;8.20;;
11996;SDS011;6058;48.704;9.474;2024-03-22T08:46:45;10.73;;;7.97;;
11996;SDS011;6058;48.704;9.474;2024-03-22T08:49:12;12.87;;;8.70;;
11996;SDS011;6058;48.704;9.474;2024-03-22T08:51:39;10.77;;;8.00;;
11996;SDS011;6058;48.704;9.474;2024-03-22T08:54:05;10.63;;;8.23;;
11996;SDS011;6058;48.704;9.474;2024-03-22T08:56:32;11.37;;;7.57;;
11996;SDS011;6058;48.704;9.474;2024-03-22T08:58:59;10.80;;;7.97;;
11996;SDS011;6058;48.704;9.474;2024-03-22T09:01:27;9.93;;;6.73;;
11996;SDS011;6058;48.704;9.474;2024-03-22T09:03:53;11.07;;;8.00;;
11996;SDS011;6058;48.704;9.474;2024-03-22T09:06:20;9.27;;;7.20;;
11996;SDS011;6058;48.704;9.474;2024-03-22T09:08:46;12.00;;;6.43;;
11996;SDS011;6058;48.704;9.474;2024-03-22T09:11:13;10.50;;;7.27;;
11996;SDS011;6058;48.704;9.474;2024-03-22T09:13:40;12.13;;;7.40;;
11996;SDS011;6058;48.704;9.474;2024-03-22T09:16:08;9.97;;;7.30;;
11996;SDS011;6058;48.704;9.474;2024-03-22T09:18:34;10.53;;;6.70;;
11996;SDS011;6058;48.704;9.474;2024-03-22T09:21:01;9.00;;;6.80;;
11996;SDS011;6058;48.704;9.474;2024-03-22T09:23:28;8.47;;;6.63;;
11996;SDS011;6058;48.704;9.474;2024-03-22T09:25:55;10.30;;;6.97;;
11996;SDS011;6058;48.704;9.474;2024-03-22T09:28:21;8.23;;;6.43;;
11996;SDS011;6058;48.704;9.474;2024-03-22T09:30:51;12.27;;;7.00;;
11996;SDS011;6058;48.704;9.474;2024-03-22T09:33:19;10.60;;;6.90;;
11996;SDS011;6058;48.704;9.474;2024-03-22T09:35:46;7.83;;;6.77;;
11996;SDS011;6058;48.704;9.474;2024-03-22T09:38:12;8.93;;;6.43;;
11996;SDS011;6058;48.704;9.474;2024-03-22T09:40:40;8.93;;;6.80;;
11996;SDS011;6058;48.704;9.474;2024-03-22T09:43:06;7.60;;;5.73;;
11996;SDS011;6058;48.704;9.474;2024-03-22T09:45:34;8.30;;;5.90;;
11996;SDS011;6058;48.704;9.474;2024-03-22T09:48:00;8.60;;;6.07;;
11996;SDS011;6058;48.704;9.474;2024-03-22T09:50:29;5.53;;;5.00;;
11996;SDS011;6058;48.704;9.474;2024-03-22T09:52:56;8.33;;;5.70;;
11996;SDS011;6058;48.704;9.474;2024-03-22T09:55:23;6.90;;;5.57;;
11996;SDS011;6058;48.704;9.474;2024-03-22T09:57:50;10.93;;;6.20;;
11996;SDS011;6058;48.704;9.474;2024-03-22T10:00:19;6.13;;;5.23;;
11996;SDS011;6058;48.704;9.474;2024-03-22T10:02:45;8.93;;;5.67;;
11996;SDS011;6058;48.704;9.474;2024-03-22T10:05:13;7.83;;;5.43;;
11996;SDS011;6058;48.704;9.474;2024-03-22T10:07:41;7.37;;;5.13;;
11996;SDS011;6058;48.704;9.474;2024-03-22T10:10:08;5.57;;;4.77;;
11996;SDS011;6058;48.704;9.474;2024-03-22T10:12:35;6.63;;;4.90;;
11996;SDS011;6058;48.704;9.474;2024-03-22T10:15:02;7.83;;;5.00;;
11996;SDS011;6058;48.704;9.474;2024-03-22T10:17:29;8.00;;;5.23;;
11996;SDS011;6058;48.704;9.474;2024-03-22T10:19:56;7.63;;;5.00;;
11996;SDS011;6058;48.704;9.474;2024-03-22T10:22:22;6.70;;;4.53;;
11996;SDS011;6058;48.704;9.474;2024-03-22T10:24:51;9.37;;;4.60;;
11996;SDS011;6058;48.704;9.474;2024-03-22T10:27:18;6.17;;;3.77;;
11996;SDS011;6058;48.704;9.474;2024-03-22T10:29:45;6.90;;;4.77;;
11996;SDS011;6058;48.704;9.474;2024-03-22T10:32:13;5.87;;;4.23;;
11996;SDS011;6058;48.704;9.474;2024-03-22T10:34:44;6.33;;;4.73;;
11996;SDS011;6058;48.704;9.474;2024-03-22T10:37:11;5.77;;;4.10;;
11996;SDS011;6058;48.704;9.474;2024-03-22T10:39:40;5.80;;;4.17;;
11996;SDS011;6058;48.704;9.474;2024-03-22T10:42:09;7.83;;;4.63;;
11996;SDS011;6058;48.704;9.474;2024-03-22T10:44:37;8.00;;;4.10;;
11996;SDS011;6058;48.704;9.474;2024-03-22T10:47:03;8.30;;;5.47;;
11996;SDS011;6058;48.704;9.474;2024-03-22T10:49:32;7.17;;;4.60;;
11996;SDS011;6058;48.704;9.474;2024-03-22T10:51:59;6.73;;;4.40;;
11996;SDS011;6058;48.704;9.474;2024-03-22T10:54:35;5.47;;;4.73;;
11996;SDS011;6058;48.704;9.474;2024-03-22T10:57:03;8.33;;;4.80;;
11996;SDS011;6058;48.704;9.474;2024-03-22T10:59:34;7.17;;;4.63;;
11996;SDS011;6058;48.704;9.474;2024-03-22T11:02:02;5.00;;;4.17;;
11996;SDS011;6058;48.704;9.474;2024-03-22T11:04:32;6.53;;;4.70;;
11996;SDS011;6058;48.704;9.474;2024-03-22T11:06:58;5.60;;;4.47;;
11996;SDS011;6058;48.704;9.474;2024-03-22T11:09:27;6.23;;;4.83;;
11996;SDS011;6058;48.704;9.474;2024-03-22T11:11:53;6.37;;;4.80;;
11996;SDS011;6058;48.704;9.474;2024-03-22T11:14:23;6.47;;;4.30;;
11996;SDS011;6058;48.704;9.474;2024-03-22T11:16:51;5.60;;;4.00;;
11996;SDS011;6058;48.704;9.474;2024-03-22T11:19:18;5.50;;;4.30;;
11996;SDS011;6058;48.704;9.474;2024-03-22T11:21:45;8.87;;;5.30;;
11996;SDS011;6058;48.704;9.474;2024-03-22T11:24:12;5.97;;;3.87;;
11996;SDS011;6058;48.704;9.474;2024-03-22T11:26:38;5.73;;;4.03;;
11996;SDS011;6058;48.704;9.474;2024-03-22T11:29:05;5.87;;;4.57;;
11996;SDS011;6058;48.704;9.474;2024-03-22T11:31:33;4.67;;;4.20;;
11996;SDS011;6058;48.704;9.474;2024-03-22T11:34:02;6.50;;;3.13;;
11996;SDS011;6058;48.704;9.474;2024-03-22T11:36:28;5.47;;;4.27;;
11996;SDS011;6058;48.704;9.474;2024-03-22T11:38:56;5.33;;;3.80;;
11996;SDS011;6058;48.704;9.474;2024-03-22T11:41:23;5.30;;;3.80;;
11996;SDS011;6058;48.704;9.474;2024-03-22T11:43:50;6.03;;;4.70;;
11996;SDS011;6058;48.704;9.474;2024-03-22T11:46:17;4.40;;;4.00;;
11996;SDS011;6058;48.704;9.474;2024-03-22T11:48:49;7.83;;;4.33;;
11996;SDS011;6058;48.704;9.474;2024-03-22T11:51:17;5.37;;;4.07;;
11996;SDS011;6058;48.704;9.474;2024-03-22T11:53:48;8.40;;;4.10;;
11996;SDS011;6058;48.704;9.474;2024-03-22T11:56:17;4.67;;;4.00;;
11996;SDS011;6058;48.704;9.474;2024-03-22T11:58:45;4.83;;;3.47;;
11996;SDS011;6058;48.704;9.474;2024-03-22T12:01:12;5.50;;;3.70;;
11996;SDS011;6058;48.704;9.474;2024-03-22T12:03:38;5.63;;;3.10;;
11996;SDS011;6058;48.704;9.474;2024-03-22T12:06:08;5.50;;;3.70;;
11996;SDS011;6058;48.704;9.474;2024-03-22T12:08:36;5.80;;;3.53;;
11996;SDS011;6058;48.704;9.474;2024-03-22T12:11:05;5.93;;;3.60;;
11996;SDS011;6058;48.704;9.474;2024-03-22T12:13:32;4.70;;;3.73;;
11996;SDS011;6058;48.704;9.474;2024-03-22T12:16:00;4.60;;;3.23;;
11996;SDS011;6058;48.704;9.474;2024-03-22T12:18:26;5.50;;;3.57;;
11996;SDS011;6058;48.704;9.474;2024-03-22T12:20:53;6.40;;;3.83;;
11996;SDS011;6058;48.704;9.474;2024-03-22T12:23:19;4.40;;;3.43;;
11996;SDS011;6058;48.704;9.474;2024-03-22T12:25:48;4.00;;;3.57;;
11996;SDS011;6058;48.704;9.474;2024-03-22T12:28:15;7.43;;;3.77;;
11996;SDS011;6058;48.704;9.474;2024-03-22T12:30:42;5.60;;;3.30;;
11996;SDS011;6058;48.704;9.474;2024-03-22T12:33:09;4.60;;;3.57;;
11996;SDS011;6058;48.704;9.474;2024-03-22T12:35:36;4.63;;;3.40;;
11996;SDS011;6058;48.704;9.474;2024-03-22T12:38:02;4.90;;;3.07;;
11996;SDS011;6058;48.704;9.474;2024-03-22T12:40:30;3.73;;;3.10;;
11996;SDS011;6058;48.704;9.474;2024-03-22T12:42:59;5.67;;;3.60;;
11996;SDS011;6058;48.704;9.474;2024-03-22T12:45:26;5.50;;;3.13;;
11996;SDS011;6058;48.704;9.474;2024-03-22T12:47:52;4.37;;;3.70;;
11996;SDS011;6058;48.704;9.474;2024-03-22T12:50:19;5.23;;;3.67;;
11996;SDS011;6058;48.704;9.474;2024-03-22T12:52:45;6.13;;;3.67;;
11996;SDS011;6058;48.704;9.474;2024-03-22T12:55:12;4.70;;;3.10;;
11996;SDS011;6058;48.704;9.474;2024-03-22T12:57:39;6.40;;;3.27;;
11996;SDS011;6058;48.704;9.474;2024-03-22T13:00:10;3.93;;;3.03;;
11996;SDS011;6058;48.704;9.474;2024-03-22T13:02:38;3.13;;;2.87;;
11996;SDS011;6058;48.704;9.474;2024-03-22T13:05:05;4.50;;;3.17;;
11996;SDS011;6058;48.704;9.474;2024-03-22T13:07:32;5.70;;;3.50;;
11996;SDS011;6058;48.704;9.474;2024-03-22T13:09:59;6.87;;;3.63;;
11996;SDS011;6058;48.704;9.474;2024-03-22T13:12:25;5.43;;;3.77;;
11996;SDS011;6058;48.704;9.474;2024-03-22T13:14:52;3.93;;;3.27;;
11996;SDS011;6058;48.704;9.474;2024-03-22T13:17:20;4.37;;;3.17;;
11996;SDS011;6058;48.704;9.474;2024-03-22T13:19:47;3.03;;;2.37;;
11996;SDS011;6058;48.704;9.474;2024-03-22T13:22:14;4.50;;;3.70;;
11996;SDS011;6058;48.704;9.474;2024-03-22T13:24:43;4.57;;;3.60;;
11996;SDS011;6058;48.704;9.474;2024-03-22T13:27:09;4.53;;;3.23;;
11996;SDS011;6058;48.704;9.474;2024-03-22T13:29:37;4.50;;;3.47;;
11996;SDS011;6058;48.704;9.474;2024-03-22T13:32:03;5.63;;;2.77;;
11996;SDS011;6058;48.704;9.474;2024-03-22T13:34:33;5.47;;;3.10;;
11996;SDS011;6058;48.704;9.474;2024-03-22T13:36:59;5.13;;;3.03;;
11996;SDS011;6058;48.704;9.474;2024-03-22T13:39:26;8.53;;;3.60;;
11996;SDS011;6058;48.704;9.474;2024-03-22T13:41:54;6.27;;;3.73;;
11996;SDS011;6058;48.704;9.474;2024-03-22T13:44:21;4.90;;;3.30;;
11996;SDS011;6058;48.704;9.474;2024-03-22T13:46:48;6.83;;;3.07;;
11996;SDS011;6058;48.704;9.474;2024-03-22T13:49:16;4.63;;;2.90;;
11996;SDS011;6058;48.704;9.474;2024-03-22T13:51:44;4.77;;;2.80;;
11996;SDS011;6058;48.704;9.474;2024-03-22T13:54:11;4.97;;;3.20;;
11996;SDS011;6058;48.704;9.474;2024-03-22T13:56:37;4.17;;;2.60;;
11996;SDS011;6058;48.704;9.474;2024-03-22T13:59:04;2.63;;;2.30;;
11996;SDS011;6058;48.704;9.474;2024-03-22T14:01:31;4.47;;;2.30;;
11996;SDS011;6058;48.704;9.474;2024-03-22T14:03:58;3.83;;;2.57;;
11996;SDS011;6058;48.704;9.474;2024-03-22T14:06:24;2.83;;;2.47;;
11996;SDS011;6058;48.704;9.474;2024-03-22T14:08:53;3.20;;;2.80;;
11996;SDS011;6058;48.704;9.474;2024-03-22T14:11:25;3.50;;;2.40;;
11996;SDS011;6058;48.704;9.474;2024-03-22T14:13:52;4.03;;;2.60;;
11996;SDS011;6058;48.704;9.474;2024-03-22T14:16:18;4.10;;;2.90;;
11996;SDS011;6058;48.704;9.474;2024-03-22T14:18:45;2.40;;;2.20;;
11996;SDS011;6058;48.704;9.474;2024-03-22T14:21:17;2.73;;;2.10;;
11996;SDS011;6058;48.704;9.474;2024-03-22T14:23:45;3.63;;;2.53;;
11996;SDS011;6058;48.704;9.474;2024-03-22T14:26:13;2.77;;;2.50;;
11996;SDS011;6058;48.704;9.474;2024-03-22T14:28:40;7.03;;;2.67;;
11996;SDS011;6058;48.704;9.474;2024-03-22T14:31:06;3.87;;;2.30;;
11996;SDS011;6058;48.704;9.474;2024-03-22T14:33:34;4.10;;;2.80;;
11996;SDS011;6058;48.704;9.474;2024-03-22T14:36:00;3.97;;;2.17;;
11996;SDS011;6058;48.704;9.474;2024-03-22T14:38:27;5.20;;;2.30;;
11996;SDS011;6058;48.704;9.474;2024-03-22T14:40:54;3.33;;;2.43;;
11996;SDS011;6058;48.704;9.474;2024-03-22T14:43:22;3.40;;;2.47;;
11996;SDS011;6058;48.704;9.474;2024-03-22T14:45:49;4.07;;;2.70;;
11996;SDS011;6058;48.704;9.474;2024-03-22T14:48:17;2.97;;;2.00;;
11996;SDS011;6058;48.704;9.474;2024-03-22T14:50:44;2.80;;;2.60;;
11996;SDS011;6058;48.704;9.474;2024-03-22T14:53:11;4.83;;;2.40;;
11996;SDS011;6058;48.704;9.474;2024-03-22T14:55:37;3.27;;;2.30;;
11996;SDS011;6058;48.704;9.474;2024-03-22T14:58:05;3.97;;;1.93;;
11996;SDS011;6058;48.704;9.474;2024-03-22T15:00:33;2.63;;;2.27;;
11996;SDS011;6058;48.704;9.474;2024-03-22T15:03:00;3.47;;;2.27;;